createdAt,value
2022-12-20T00:01:30.069Z,28.10
2022-12-20T00:03:59.567Z,27.38
2022-12-20T00:06:27.054Z,29.90
2022-12-20T00:08:58.711Z,29.13
2022-12-20T00:11:26.557Z,26.75
2022-12-20T00:13:53.442Z,26.90
2022-12-20T00:16:23.129Z,31.45
2022-12-20T00:18:55.132Z,31.00
2022-12-20T00:21:22.776Z,32.83
2022-12-20T00:23:49.613Z,30.58
2022-12-20T00:26:18.760Z,33.03
2022-12-20T00:28:46.712Z,33.95
2022-12-20T00:31:15.896Z,29.48
2022-12-20T00:33:46.706Z,31.10
2022-12-20T00:36:14.526Z,26.80
2022-12-20T00:38:44.593Z,31.73
2022-12-20T00:41:14.320Z,32.22
2022-12-20T00:43:42.028Z,30.45
2022-12-20T00:46:11.592Z,31.05
2022-12-20T00:48:39.075Z,29.48
2022-12-20T00:51:09.653Z,35.13
2022-12-20T00:53:36.894Z,23.85
2022-12-20T00:56:04.768Z,29.38
2022-12-20T00:58:34.126Z,30.02
2022-12-20T01:01:01.285Z,29.23
2022-12-20T01:03:29.459Z,37.38
2022-12-20T01:05:59.334Z,29.13
2022-12-20T01:08:28.692Z,31.73
2022-12-20T01:11:07.635Z,32.20
2022-12-20T01:13:36.758Z,31.42
2022-12-20T01:16:19.667Z,28.60
2022-12-20T01:18:47.384Z,32.85
2022-12-20T01:21:16.852Z,35.10
2022-12-20T01:23:43.981Z,30.02
2022-12-20T01:26:15.931Z,32.35
2022-12-20T01:28:44.988Z,25.17
2022-12-20T01:31:16.097Z,33.30
2022-12-20T01:33:43.848Z,31.95
2022-12-20T01:36:20.097Z,33.20
2022-12-20T01:38:47.215Z,28.65
2022-12-20T01:41:19.508Z,32.72
2022-12-20T01:43:46.400Z,28.98
2022-12-20T01:46:13.442Z,31.05
2022-12-20T01:48:43.081Z,31.85
2022-12-20T01:51:11.401Z,27.23
2022-12-20T01:53:38.853Z,32.05
2022-12-20T01:56:07.623Z,30.17
2022-12-20T01:58:36.772Z,32.28
2022-12-20T02:01:03.897Z,31.13
2022-12-20T02:03:32.405Z,33.33
2022-12-20T02:06:15.620Z,33.92
2022-12-20T02:08:43.848Z,30.23
2022-12-20T02:11:49.922Z,36.85
2022-12-20T02:14:28.739Z,36.72
2022-12-20T02:17:17.988Z,31.73
2022-12-20T02:20:03.962Z,29.45
2022-12-20T02:22:58.087Z,33.83
2022-12-20T02:28:26.989Z,34.13
2022-12-20T02:30:56.625Z,29.40
2022-12-20T02:33:26.755Z,32.85
2022-12-20T02:35:53.900Z,35.22
2022-12-20T02:38:25.598Z,34.33
2022-12-20T02:40:56.735Z,30.73
2022-12-20T02:43:43.406Z,29.52
2022-12-20T02:46:11.770Z,33.25
2022-12-20T02:48:40.522Z,29.27
2022-12-20T02:51:09.732Z,32.08
2022-12-20T02:53:38.179Z,28.42
2022-12-20T02:56:27.750Z,29.27
2022-12-20T02:59:16.881Z,30.05
2022-12-20T03:01:48.804Z,30.67
2022-12-20T03:04:17.821Z,35.55
2022-12-20T03:07:14.471Z,32.08
2022-12-20T03:09:43.998Z,27.58
2022-12-20T03:12:14.571Z,30.85
2022-12-20T03:14:41.505Z,31.80
2022-12-20T03:17:11.064Z,32.55
2022-12-20T03:19:38.509Z,34.58
2022-12-20T03:22:06.232Z,34.47
2022-12-20T03:24:33.715Z,31.45
2022-12-20T03:27:01.135Z,28.25
2022-12-20T03:29:28.782Z,33.05
2022-12-20T03:31:55.665Z,30.58
2022-12-20T03:34:22.806Z,34.85
2022-12-20T03:36:50.105Z,31.73
2022-12-20T03:39:17.196Z,28.25
2022-12-20T03:41:44.774Z,33.95
2022-12-20T03:44:15.237Z,32.40
2022-12-20T03:46:42.530Z,26.95
2022-12-20T03:49:10.115Z,29.88
2022-12-20T03:51:44.834Z,29.45
2022-12-20T03:54:12.096Z,29.10
2022-12-20T03:56:57.909Z,31.83
2022-12-20T03:59:25.041Z,31.27
2022-12-20T04:01:54.742Z,33.50
2022-12-20T04:04:21.722Z,33.17
2022-12-20T04:06:48.503Z,28.58
2022-12-20T04:09:16.291Z,28.05
2022-12-20T04:11:48.369Z,32.40
2022-12-20T04:14:15.695Z,30.15
2022-12-20T04:16:44.263Z,32.20
2022-12-20T04:19:12.088Z,33.50
2022-12-20T04:21:45.833Z,31.50
2022-12-20T04:24:13.706Z,35.63
2022-12-20T04:26:55.852Z,35.45
2022-12-20T04:29:23.150Z,35.55
2022-12-20T04:31:50.717Z,33.47
2022-12-20T04:34:18.257Z,34.97
2022-12-20T04:36:45.292Z,34.20
2022-12-20T04:39:18.464Z,33.15
2022-12-20T04:42:05.073Z,34.85
2022-12-20T04:44:32.025Z,32.05
2022-12-20T04:46:59.619Z,34.13
2022-12-20T04:49:28.666Z,36.60
2022-12-20T04:52:15.441Z,34.88
2022-12-20T04:54:42.563Z,33.40
2022-12-20T04:59:42.746Z,35.17
2022-12-20T05:02:10.499Z,36.33
2022-12-20T05:04:53.311Z,35.83
2022-12-20T05:07:20.136Z,36.75
2022-12-20T05:09:53.078Z,32.97
2022-12-20T05:12:19.932Z,37.13
2022-12-20T05:14:46.790Z,33.38
2022-12-20T05:17:16.460Z,36.30
2022-12-20T05:19:43.593Z,32.95
2022-12-20T05:22:31.140Z,34.00
2022-12-20T05:25:24.798Z,33.20
2022-12-20T05:27:54.215Z,36.38
2022-12-20T05:30:24.866Z,36.95
2022-12-20T05:32:51.857Z,33.00
2022-12-20T05:35:19.760Z,34.47
2022-12-20T05:37:53.471Z,35.22
2022-12-20T05:40:22.355Z,31.70
2022-12-20T05:42:49.816Z,33.97
2022-12-20T05:45:16.961Z,33.65
2022-12-20T05:47:52.532Z,36.90
2022-12-20T05:50:19.617Z,34.35
2022-12-20T05:53:11.380Z,32.85
2022-12-20T05:55:47.397Z,34.58
2022-12-20T05:58:14.989Z,33.33
2022-12-20T06:00:52.104Z,32.90
2022-12-20T06:03:19.886Z,31.92
2022-12-20T06:05:47.037Z,32.42
2022-12-20T06:08:21.327Z,33.40
2022-12-20T06:10:49.560Z,30.65
2022-12-20T06:13:17.737Z,32.88
2022-12-20T06:15:45.220Z,30.40
2022-12-20T06:18:12.081Z,35.10
2022-12-20T06:20:39.420Z,33.38
2022-12-20T06:23:09.572Z,31.23
2022-12-20T06:25:43.976Z,30.88
2022-12-20T06:28:11.339Z,29.00
2022-12-20T06:30:38.428Z,29.60
2022-12-20T06:33:07.681Z,29.95
2022-12-20T06:35:34.738Z,28.50
2022-12-20T06:38:01.557Z,28.98
2022-12-20T06:40:32.141Z,28.60
2022-12-20T06:43:01.194Z,30.60
2022-12-20T06:45:28.562Z,25.10
2022-12-20T06:47:58.157Z,28.08
2022-12-20T06:50:26.865Z,24.40
2022-12-20T06:52:53.934Z,24.60
2022-12-20T06:55:22.171Z,25.65
2022-12-20T06:57:50.343Z,26.95
2022-12-20T07:00:17.865Z,26.73
2022-12-20T07:02:45.509Z,26.17
2022-12-20T07:05:12.438Z,28.33
2022-12-20T07:07:44.846Z,27.35
2022-12-20T07:10:12.411Z,28.40
2022-12-20T07:12:43.870Z,28.20
2022-12-20T07:15:14.216Z,27.23
2022-12-20T07:17:41.040Z,26.05
2022-12-20T07:20:13.306Z,30.23
2022-12-20T07:22:41.326Z,20.65
2022-12-20T07:25:08.646Z,18.05
2022-12-20T07:27:35.658Z,20.23
2022-12-20T07:30:02.432Z,19.80
2022-12-20T07:32:29.803Z,16.48
2022-12-20T07:34:56.840Z,16.08
2022-12-20T07:37:23.755Z,16.45
2022-12-20T07:39:50.734Z,16.83
2022-12-20T07:42:18.782Z,17.00
2022-12-20T07:44:49.385Z,18.95
2022-12-20T07:47:16.253Z,18.10
2022-12-20T07:49:43.060Z,16.38
2022-12-20T07:52:12.926Z,17.08
2022-12-20T07:55:01.927Z,15.65
2022-12-20T07:57:37.097Z,18.70
2022-12-20T08:00:05.139Z,16.80
2022-12-20T08:02:51.119Z,16.65
2022-12-20T08:05:18.412Z,15.68
2022-12-20T08:07:47.067Z,17.08
2022-12-20T08:10:16.920Z,17.65
2022-12-20T08:12:45.733Z,17.80
2022-12-20T08:15:12.853Z,17.83
2022-12-20T08:17:39.703Z,18.10
2022-12-20T08:20:08.630Z,19.23
2022-12-20T08:22:35.858Z,20.25
2022-12-20T08:25:02.876Z,20.13
2022-12-20T08:27:29.713Z,20.88
2022-12-20T08:29:56.516Z,21.23
2022-12-20T08:32:23.364Z,23.73
2022-12-20T08:34:52.802Z,21.60
2022-12-20T08:37:20.009Z,20.30
2022-12-20T08:39:46.989Z,23.38
2022-12-20T08:42:13.914Z,20.92
2022-12-20T08:44:40.831Z,19.92
2022-12-20T08:47:08.685Z,20.15
2022-12-20T08:49:35.531Z,18.73
2022-12-20T08:52:02.389Z,19.33
2022-12-20T08:54:29.186Z,16.77
2022-12-20T08:56:56.086Z,20.55
2022-12-20T08:59:22.902Z,18.77
2022-12-20T09:01:50.527Z,19.30
2022-12-20T09:04:17.518Z,20.02
2022-12-20T09:06:44.638Z,17.60
2022-12-20T09:09:11.613Z,16.92
2022-12-20T09:11:38.454Z,19.83
2022-12-20T09:14:05.276Z,20.13
2022-12-20T09:16:33.074Z,19.33
2022-12-20T09:19:05.482Z,17.42
2022-12-20T09:21:33.034Z,17.23
2022-12-20T09:24:00.122Z,18.08
2022-12-20T09:26:27.014Z,20.55
2022-12-20T09:28:55.065Z,18.80
2022-12-20T09:31:25.288Z,18.55
2022-12-20T09:33:56.625Z,18.80
2022-12-20T09:36:25.610Z,22.08
2022-12-20T09:38:53.716Z,20.73
2022-12-20T09:41:29.921Z,20.58
2022-12-20T09:43:58.869Z,20.40
2022-12-20T09:46:27.309Z,20.35
2022-12-20T09:48:54.599Z,20.30
2022-12-20T09:51:34.863Z,19.27
2022-12-20T09:54:26.962Z,17.85
2022-12-20T09:57:32.911Z,20.02
2022-12-20T09:59:59.880Z,19.30
2022-12-20T10:02:57.084Z,20.38
2022-12-20T10:05:28.859Z,21.05
2022-12-20T10:08:09.777Z,21.98
2022-12-20T10:11:02.202Z,19.50
2022-12-20T10:14:05.754Z,18.45
2022-12-20T10:16:50.890Z,19.95
2022-12-20T10:19:42.655Z,18.70
2022-12-20T10:22:36.714Z,16.35
2022-12-20T10:25:25.639Z,18.17
2022-12-20T10:27:57.005Z,16.90
2022-12-20T10:30:26.876Z,15.73
2022-12-20T10:32:56.270Z,15.32
2022-12-20T10:35:24.763Z,15.10
2022-12-20T10:38:14.319Z,12.50
2022-12-20T10:41:23.259Z,14.45
2022-12-20T10:44:03.361Z,14.93
2022-12-20T10:46:43.796Z,12.75
2022-12-20T10:49:33.033Z,13.32
2022-12-20T10:52:20.170Z,13.60
2022-12-20T10:54:47.429Z,13.43
2022-12-20T10:57:20.098Z,14.25
2022-12-20T11:00:26.924Z,13.13
2022-12-20T11:03:19.187Z,16.63
2022-12-20T11:06:02.440Z,21.08
2022-12-20T11:08:42.759Z,15.75
2022-12-20T11:11:23.648Z,16.45
2022-12-20T11:13:52.212Z,14.82
2022-12-20T11:16:33.551Z,14.07
2022-12-20T11:19:14.436Z,19.58
2022-12-20T11:21:57.730Z,14.77
2022-12-20T11:24:33.102Z,17.88
2022-12-20T11:27:20.577Z,14.88
2022-12-20T11:29:53.495Z,18.50
2022-12-20T11:32:43.080Z,14.90
2022-12-20T11:35:22.278Z,17.42
2022-12-20T11:38:27.105Z,18.20
2022-12-20T11:41:10.865Z,15.77
2022-12-20T11:46:58.844Z,16.58
2022-12-20T11:49:56.254Z,22.92
2022-12-20T11:52:38.933Z,17.40
2022-12-20T11:55:20.755Z,20.02
2022-12-20T11:58:19.668Z,17.27
2022-12-20T12:00:58.308Z,17.73
2022-12-20T12:03:36.554Z,22.85
2022-12-20T12:06:23.778Z,15.27
2022-12-20T12:09:00.147Z,19.75
2022-12-20T12:12:05.115Z,19.67
2022-12-20T12:14:46.539Z,24.73
2022-12-20T12:17:20.841Z,17.02
2022-12-20T12:19:50.959Z,23.55
2022-12-20T12:22:28.063Z,20.50
2022-12-20T12:25:00.420Z,22.08
2022-12-20T12:27:29.072Z,22.42
2022-12-20T12:29:58.437Z,22.77
2022-12-20T12:32:37.221Z,18.67
2022-12-20T12:35:55.037Z,21.48
2022-12-20T12:38:41.395Z,19.13
2022-12-20T12:41:35.552Z,20.30
2022-12-20T12:46:56.044Z,21.90
2022-12-20T12:49:26.189Z,17.17
2022-12-20T12:51:57.341Z,21.58
2022-12-20T12:54:37.503Z,20.38
2022-12-20T12:57:13.762Z,23.35
2022-12-20T12:59:46.128Z,24.45
2022-12-20T13:02:16.559Z,20.50
2022-12-20T13:05:06.470Z,22.98
2022-12-20T13:07:42.439Z,21.95
2022-12-20T13:10:19.076Z,20.38
2022-12-20T13:13:22.324Z,29.58
2022-12-20T13:15:51.438Z,21.40
2022-12-20T13:18:37.058Z,26.15
2022-12-20T13:21:35.448Z,21.98
2022-12-20T13:24:31.221Z,21.23
2022-12-20T13:27:00.271Z,22.60
2022-12-20T13:29:34.374Z,28.95
2022-12-20T13:32:01.883Z,24.55
2022-12-20T13:34:56.773Z,20.95
2022-12-20T13:37:55.819Z,22.33
2022-12-20T13:40:50.228Z,19.65
2022-12-20T13:43:20.338Z,18.90
2022-12-20T13:45:56.127Z,21.52
2022-12-20T13:48:31.279Z,29.42
2022-12-20T13:50:58.577Z,22.92
2022-12-20T13:53:39.811Z,19.92
2022-12-20T13:56:41.016Z,24.45
2022-12-20T13:59:28.886Z,27.98
2022-12-20T14:01:59.455Z,21.80
2022-12-20T14:04:42.805Z,27.17
2022-12-20T14:07:14.834Z,22.25
2022-12-20T14:09:47.098Z,24.15
2022-12-20T14:12:25.292Z,24.42
2022-12-20T14:14:57.338Z,27.73
2022-12-20T14:17:31.322Z,26.92
2022-12-20T14:20:15.112Z,26.42
2022-12-20T14:22:52.352Z,23.95
2022-12-20T14:25:36.546Z,27.92
2022-12-20T14:28:04.348Z,24.13
2022-12-20T14:30:35.599Z,25.58
2022-12-20T14:33:03.078Z,26.77
2022-12-20T14:35:30.024Z,24.65
2022-12-20T14:38:48.678Z,25.27
2022-12-20T14:41:35.413Z,23.85
2022-12-20T14:44:30.170Z,34.20
2022-12-20T14:47:26.486Z,34.25
2022-12-20T14:50:05.080Z,26.95
2022-12-20T14:52:42.311Z,24.10
2022-12-20T14:55:54.708Z,28.85
2022-12-20T14:58:40.237Z,28.38
2022-12-20T15:01:29.487Z,24.00
2022-12-20T15:04:37.491Z,33.72
2022-12-20T15:07:04.540Z,24.73
2022-12-20T15:09:31.608Z,24.88
2022-12-20T15:11:58.708Z,27.50
2022-12-20T15:14:39.319Z,27.98
2022-12-20T15:17:15.871Z,28.52
2022-12-20T15:19:43.464Z,28.55
2022-12-20T15:22:19.114Z,25.33
2022-12-20T15:24:53.408Z,32.85
2022-12-20T15:27:58.231Z,33.60
2022-12-20T15:30:25.113Z,22.35
2022-12-20T15:32:55.488Z,37.58
2022-12-20T15:35:23.342Z,33.90
2022-12-20T15:37:50.429Z,26.35
2022-12-20T15:40:17.356Z,28.35
2022-12-20T15:42:44.555Z,26.42
2022-12-20T15:45:15.922Z,34.38
2022-12-20T15:47:44.933Z,28.83
2022-12-20T15:50:15.015Z,28.70
2022-12-20T15:52:41.970Z,28.10
2022-12-20T15:55:11.340Z,31.35
2022-12-20T15:57:38.401Z,32.55
2022-12-20T16:00:06.837Z,33.30
2022-12-20T16:02:40.141Z,32.33
2022-12-20T16:05:09.705Z,37.22
2022-12-20T16:07:36.866Z,30.92
2022-12-20T16:10:04.171Z,30.30
2022-12-20T16:12:34.715Z,29.85
2022-12-20T16:15:01.879Z,30.80
2022-12-20T16:17:28.855Z,28.33
2022-12-20T16:19:55.837Z,26.88
2022-12-20T16:22:26.421Z,30.85
2022-12-20T16:24:53.499Z,40.72
2022-12-20T16:27:21.665Z,32.45
2022-12-20T16:29:48.606Z,28.83
2022-12-20T16:32:21.758Z,28.20
2022-12-20T16:34:52.571Z,28.38
2022-12-20T16:37:19.749Z,32.70
2022-12-20T16:39:47.133Z,33.20
2022-12-20T16:42:15.720Z,34.80
2022-12-20T16:44:44.926Z,28.30
2022-12-20T16:47:14.754Z,30.27
2022-12-20T16:49:51.114Z,38.15
2022-12-20T16:52:20.882Z,31.73
2022-12-20T16:54:47.697Z,35.33
2022-12-20T16:57:15.318Z,33.40
2022-12-20T16:59:42.271Z,30.88
2022-12-20T17:02:29.851Z,32.20
2022-12-20T17:04:57.142Z,36.20
2022-12-20T17:07:24.435Z,37.50
2022-12-20T17:12:35.959Z,30.55
2022-12-20T17:15:04.779Z,36.03
2022-12-20T17:17:51.681Z,30.65
2022-12-20T17:20:19.584Z,37.88
2022-12-20T17:25:36.367Z,36.38
2022-12-20T17:28:26.333Z,32.60
2022-12-20T17:30:53.463Z,39.47
2022-12-20T17:33:20.339Z,34.50
2022-12-20T17:35:47.216Z,44.58
2022-12-20T17:38:14.347Z,36.63
2022-12-20T17:40:41.231Z,39.05
2022-12-20T17:43:11.525Z,40.28
2022-12-20T17:45:38.928Z,41.50
2022-12-20T17:48:06.244Z,39.90
2022-12-20T17:50:33.133Z,40.20
2022-12-20T17:53:00.061Z,41.53
2022-12-20T17:55:28.412Z,37.25
2022-12-20T17:57:56.575Z,35.75
2022-12-20T18:00:36.335Z,38.28
2022-12-20T18:03:05.471Z,37.88
2022-12-20T18:05:32.458Z,36.92
2022-12-20T18:07:59.504Z,39.67
2022-12-20T18:10:26.377Z,37.47
2022-12-20T18:12:53.350Z,38.30
2022-12-20T18:15:20.786Z,39.13
2022-12-20T18:17:47.958Z,34.08
2022-12-20T18:20:14.950Z,39.95
2022-12-20T18:22:42.879Z,39.58
2022-12-20T18:25:09.949Z,38.17
2022-12-20T18:27:55.685Z,45.45
2022-12-20T18:30:22.554Z,40.50
2022-12-20T18:32:49.386Z,48.72
2022-12-20T18:35:16.367Z,42.13
2022-12-20T18:37:43.444Z,42.67
2022-12-20T18:40:10.498Z,45.17
2022-12-20T18:42:37.350Z,45.70
2022-12-20T18:45:04.617Z,42.70
2022-12-20T18:47:32.392Z,47.20
2022-12-20T18:49:59.546Z,45.53
2022-12-20T18:52:27.214Z,48.55
2022-12-20T18:54:54.146Z,48.00
2022-12-20T18:57:22.185Z,86.47
2022-12-20T18:59:49.062Z,100.40
2022-12-20T19:02:17.447Z,116.95
2022-12-20T19:04:44.940Z,110.68
2022-12-20T19:07:12.011Z,120.95
2022-12-20T19:09:41.416Z,49.53
2022-12-20T19:12:08.324Z,113.90
2022-12-20T19:14:35.162Z,116.78
2022-12-20T19:17:02.092Z,117.13
2022-12-20T19:19:30.255Z,49.13
2022-12-20T19:21:58.009Z,52.13
2022-12-20T19:24:24.885Z,139.55
2022-12-20T19:26:52.545Z,48.20
2022-12-20T19:30:00.552Z,44.90
2022-12-20T19:32:28.221Z,37.72
2022-12-20T19:34:55.895Z,41.38
2022-12-20T19:37:22.999Z,50.05
2022-12-20T19:39:49.857Z,38.10
2022-12-20T19:42:24.203Z,37.83
2022-12-20T19:44:51.591Z,91.30
2022-12-20T19:47:19.184Z,44.80
2022-12-20T19:49:46.481Z,40.55
2022-12-20T19:52:28.620Z,46.17
2022-12-20T19:54:56.086Z,46.60
2022-12-20T19:57:23.400Z,39.05
2022-12-20T19:59:55.516Z,44.28
2022-12-20T20:02:23.222Z,46.50
2022-12-20T20:04:50.131Z,93.05
2022-12-20T20:07:18.407Z,42.13
2022-12-20T20:09:45.327Z,42.63
2022-12-20T20:12:12.514Z,39.55
2022-12-20T20:14:39.445Z,46.97
2022-12-20T20:17:06.316Z,50.70
2022-12-20T20:19:33.265Z,39.50
2022-12-20T20:22:00.188Z,43.20
2022-12-20T20:24:27.081Z,43.65
2022-12-20T20:26:53.972Z,45.70
2022-12-20T20:29:21.701Z,57.40
2022-12-20T20:31:48.648Z,47.33
2022-12-20T20:34:15.526Z,60.47
2022-12-20T20:36:42.431Z,44.50
2022-12-20T20:39:09.406Z,39.40
2022-12-20T20:41:36.259Z,37.70
2022-12-20T20:44:03.190Z,51.65
2022-12-20T20:46:30.586Z,44.85
2022-12-20T20:48:58.321Z,42.00
2022-12-20T20:51:25.155Z,54.25
2022-12-20T20:53:52.102Z,41.72
2022-12-20T20:56:21.263Z,40.63
2022-12-20T20:58:50.011Z,41.42
2022-12-20T21:01:17.025Z,41.15
2022-12-20T21:03:44.152Z,41.13
2022-12-20T21:08:59.494Z,45.47
2022-12-20T21:11:27.389Z,39.90
2022-12-20T21:13:57.097Z,42.60
2022-12-20T21:16:24.586Z,46.35
2022-12-20T21:18:56.884Z,44.28
2022-12-20T21:21:25.807Z,45.15
2022-12-20T21:23:53.449Z,41.40
2022-12-20T21:26:22.271Z,39.00
2022-12-20T21:28:49.510Z,37.00
2022-12-20T21:31:19.429Z,55.45
2022-12-20T21:33:47.368Z,37.50
2022-12-20T21:36:19.210Z,31.02
2022-12-20T21:39:04.559Z,32.65
2022-12-20T21:41:32.412Z,31.10
2022-12-20T21:44:00.767Z,28.60
2022-12-20T21:46:30.056Z,57.80
2022-12-20T21:48:58.794Z,18.63
2022-12-20T21:51:27.379Z,29.45
2022-12-20T21:53:57.722Z,16.55
2022-12-20T21:56:27.086Z,18.48
2022-12-20T21:59:13.717Z,18.52
2022-12-20T22:01:40.997Z,18.67
2022-12-20T22:04:08.165Z,18.92
2022-12-20T22:06:35.305Z,25.10
2022-12-20T22:09:06.754Z,47.83
2022-12-20T22:11:34.450Z,26.98
2022-12-20T22:14:01.614Z,16.00
2022-12-20T22:16:31.826Z,40.67
2022-12-20T22:19:00.484Z,57.33
2022-12-20T22:21:30.228Z,17.88
2022-12-20T22:23:57.969Z,16.63
2022-12-20T22:26:27.239Z,59.47
2022-12-20T22:29:01.182Z,25.75
2022-12-20T22:31:28.352Z,38.05
2022-12-20T22:33:56.593Z,62.25
2022-12-20T22:36:23.907Z,26.27
2022-12-20T22:38:52.422Z,23.42
2022-12-20T22:41:28.804Z,29.08
2022-12-20T22:43:57.502Z,20.88
2022-12-20T22:46:24.518Z,52.33
2022-12-20T22:48:52.590Z,53.55
2022-12-20T22:51:21.634Z,27.33
2022-12-20T22:53:49.435Z,21.10
2022-12-20T22:56:18.351Z,20.33
2022-12-20T22:58:45.736Z,22.45
2022-12-20T23:01:15.202Z,19.88
2022-12-20T23:03:42.928Z,61.70
2022-12-20T23:06:13.282Z,50.72
2022-12-20T23:09:01.945Z,23.25
2022-12-20T23:11:47.614Z,25.65
2022-12-20T23:14:36.186Z,17.10
2022-12-20T23:17:04.752Z,24.90
2022-12-20T23:19:53.416Z,57.05
2022-12-20T23:22:40.553Z,20.77
2022-12-20T23:25:13.469Z,18.42
2022-12-20T23:28:00.121Z,23.95
2022-12-20T23:30:27.084Z,20.10
2022-12-20T23:32:56.095Z,24.55
2022-12-20T23:35:24.728Z,20.77
2022-12-20T23:37:51.903Z,34.20
2022-12-20T23:40:18.858Z,31.70
2022-12-20T23:42:45.826Z,20.05
2022-12-20T23:45:12.772Z,19.23
2022-12-20T23:47:40.839Z,20.38
2022-12-20T23:50:08.338Z,53.05
2022-12-20T23:52:35.176Z,22.85
2022-12-20T23:55:02.262Z,19.85
2022-12-20T23:57:31.404Z,58.28
2022-12-20T23:59:58.274Z,25.77
